Ana Sayfa
METAR-TAF:

METAR-TAF

Havaalanları :

Ontario Municipal Airport

Ontario, Oregon, Amerika Birleşik Devletleri

Enlem: 44-01-10N, Boylam: 117-00-35W, yükseklik: 667 m

Güncel hava durumu gözlemi

Rapor saat 02:13 UTC de 40 dakika önce yapıldı.
Rüzgar kuzey/kuzeydoğudan 6 kt
Sıcaklık 7°C
Nem 81%
Basınç 1022 hPa
Görüş mesafesi: 16.1 km
1600 ft yükseklikte parçalı bulutlu
3800 ft yükseklikte çok bulutlu

METAR: KONO 260213Z AUTO 02006KT 10SM SCT016 OVC038 07/04 A3017 RMK AO2 T00670039

Saat: 19:53 (02:53 UTC)


TAF: eksik

4.000'den fazla havaalanı için hava durumu gözlemleri ve tahminleri (METAR ve TAF raporları).

Kullanılabilir istasyonlar harita üzerinde sarı ve kırmızı noktalarla gösterilir.

İstasyonun adını görmek için fareyi noktanın üzerinde gezdirin.

Sonrasında hava gözlem ve tahminlerini görmek için tıklayın.

Haritayı değiştirmek için: yaklaştırmak için siyah artı işaretli yeşil düğmeye ve uzaklaştırmak için de eksi işaretli düğmeye hızla tıklayın; bitişik haritalar için yeşil okları kullanın.


METAR-TAF: